Overview Statistics Trail Chart Weather Telemetry Raw packets
 

This is the latest recevied weather packets stored in our database for station/object XE2AD-5. If no packets are shown the sender has not sent any weather packets the latest 10 day(s).

<< 6 7 8 9 10 11 >>
Time Temp. Humidity Pressure Rain* Wind** Luminosity Snow
1777253699 29.44° C 19% 803.9 hPa - - - -
1777250398 29.44° C 19% 803.3 hPa - - - -
1777247098 29.44° C 18% 802.9 hPa - - - -
1777243797 28.89° C 18% 802.8 hPa - - - -
1777240497 28.89° C 16% 803.1 hPa - - - -
1777237197 28.33° C 16% 803.8 hPa - - - -
1777233897 27.22° C 17% 804.7 hPa - - - -
1777230596 26.67° C 19% 805.4 hPa - - - -
1777227296 25° C 23% 806.2 hPa - - - -
1777223996 25° C 23% 807 hPa - - - -
1777220696 24.44° C 23% 807.4 hPa - - - -
1777217395 24.44° C 23% 807.5 hPa - - - -
1777214094 25° C 23% 807.4 hPa - - - -
1777210794 25° C 23% 806.9 hPa - - - -
1777207494 25° C 22% 806.4 hPa - - - -
1777204193 25.56° C 22% 806 hPa - - - -
1777200893 26.11° C 21% 805.5 hPa - - - -
1777197593 26.11° C 21% 805.3 hPa - - - -
1777194292 26.67° C 21% 805 hPa - - - -
1777190992 26.67° C 20% 805.1 hPa - - - -
1777187691 27.22° C 20% 804.9 hPa - - - -
1777184391 27.22° C 19% 805.3 hPa - - - -
1777181091 27.78° C 18% 805.6 hPa - - - -
1777177791 27.78° C 15% 805.2 hPa - - - -
1777174490 27.78° C 14% 804.5 hPa - - - -

* Rain since midnight (hover to see other rain measurements)
** Current wind speed in m/s (hover to see current wind gust speed)